sensor_id;sensor_type;location;lat;lon;timestamp;temperature;humidity
68804;SHT31;55787;52.678;13.314;2023-07-13T00:01:48;15.49;82.01
68804;SHT31;55787;52.678;13.314;2023-07-13T00:04:18;15.47;81.69
68804;SHT31;55787;52.678;13.314;2023-07-13T00:06:46;15.44;81.69
68804;SHT31;55787;52.678;13.314;2023-07-13T00:09:14;15.47;82.32
68804;SHT31;55787;52.678;13.314;2023-07-13T00:11:41;15.46;82.04
68804;SHT31;55787;52.678;13.314;2023-07-13T00:14:09;15.40;81.99
68804;SHT31;55787;52.678;13.314;2023-07-13T00:16:38;15.34;82.05
68804;SHT31;55787;52.678;13.314;2023-07-13T00:19:06;15.32;81.82
68804;SHT31;55787;52.678;13.314;2023-07-13T00:21:33;15.26;82.00
68804;SHT31;55787;52.678;13.314;2023-07-13T00:24:01;15.22;82.14
68804;SHT31;55787;52.678;13.314;2023-07-13T00:26:29;15.14;82.34
68804;SHT31;55787;52.678;13.314;2023-07-13T00:28:56;15.12;82.68
68804;SHT31;55787;52.678;13.314;2023-07-13T00:31:24;15.04;83.23
68804;SHT31;55787;52.678;13.314;2023-07-13T00:33:51;15.03;83.30
68804;SHT31;55787;52.678;13.314;2023-07-13T00:36:19;14.98;83.89
68804;SHT31;55787;52.678;13.314;2023-07-13T00:38:46;14.98;84.49
68804;SHT31;55787;52.678;13.314;2023-07-13T00:41:13;14.93;84.55
68804;SHT31;55787;52.678;13.314;2023-07-13T00:43:40;14.93;84.92
68804;SHT31;55787;52.678;13.314;2023-07-13T00:46:15;14.91;84.84
68804;SHT31;55787;52.678;13.314;2023-07-13T00:48:43;14.91;85.03
68804;SHT31;55787;52.678;13.314;2023-07-13T00:51:11;14.86;84.79
68804;SHT31;55787;52.678;13.314;2023-07-13T00:53:39;14.88;85.17
68804;SHT31;55787;52.678;13.314;2023-07-13T00:56:06;14.82;84.99
68804;SHT31;55787;52.678;13.314;2023-07-13T00:58:33;14.81;85.11
68804;SHT31;55787;52.678;13.314;2023-07-13T01:01:01;14.75;85.15
68804;SHT31;55787;52.678;13.314;2023-07-13T01:03:28;14.75;85.48
68804;SHT31;55787;52.678;13.314;2023-07-13T01:05:55;14.69;85.22
68804;SHT31;55787;52.678;13.314;2023-07-13T01:08:22;14.67;85.50
68804;SHT31;55787;52.678;13.314;2023-07-13T01:10:54;14.67;85.52
68804;SHT31;55787;52.678;13.314;2023-07-13T01:13:21;14.65;85.73
68804;SHT31;55787;52.678;13.314;2023-07-13T01:15:49;14.58;86.06
68804;SHT31;55787;52.678;13.314;2023-07-13T01:18:26;14.52;86.56
68804;SHT31;55787;52.678;13.314;2023-07-13T01:21:03;14.45;86.22
68804;SHT31;55787;52.678;13.314;2023-07-13T01:23:31;14.41;86.16
68804;SHT31;55787;52.678;13.314;2023-07-13T01:25:59;14.35;86.76
68804;SHT31;55787;52.678;13.314;2023-07-13T01:28:27;14.30;86.91
68804;SHT31;55787;52.678;13.314;2023-07-13T01:30:57;14.28;86.73
68804;SHT31;55787;52.678;13.314;2023-07-13T01:33:24;14.24;86.65
68804;SHT31;55787;52.678;13.314;2023-07-13T01:35:51;14.20;87.30
68804;SHT31;55787;52.678;13.314;2023-07-13T01:38:21;14.13;87.12
68804;SHT31;55787;52.678;13.314;2023-07-13T01:40:50;14.06;87.41
68804;SHT31;55787;52.678;13.314;2023-07-13T01:43:17;14.00;87.04
68804;SHT31;55787;52.678;13.314;2023-07-13T01:45:44;13.99;87.94
68804;SHT31;55787;52.678;13.314;2023-07-13T01:48:12;13.93;87.91
68804;SHT31;55787;52.678;13.314;2023-07-13T01:50:39;13.91;88.27
68804;SHT31;55787;52.678;13.314;2023-07-13T01:53:07;13.89;88.70
68804;SHT31;55787;52.678;13.314;2023-07-13T01:55:34;13.86;88.51
68804;SHT31;55787;52.678;13.314;2023-07-13T01:58:02;13.84;88.53
68804;SHT31;55787;52.678;13.314;2023-07-13T02:00:29;13.82;88.58
68804;SHT31;55787;52.678;13.314;2023-07-13T02:02:56;13.76;89.00
68804;SHT31;55787;52.678;13.314;2023-07-13T02:05:23;13.70;88.94
68804;SHT31;55787;52.678;13.314;2023-07-13T02:07:50;13.67;89.26
68804;SHT31;55787;52.678;13.314;2023-07-13T02:10:17;13.62;89.26
68804;SHT31;55787;52.678;13.314;2023-07-13T02:12:44;13.59;89.43
68804;SHT31;55787;52.678;13.314;2023-07-13T02:15:11;13.66;89.90
68804;SHT31;55787;52.678;13.314;2023-07-13T02:17:38;13.73;90.60
68804;SHT31;55787;52.678;13.314;2023-07-13T02:20:07;13.91;89.72
68804;SHT31;55787;52.678;13.314;2023-07-13T02:22:34;14.20;89.20
68804;SHT31;55787;52.678;13.314;2023-07-13T02:25:01;14.37;88.01
68804;SHT31;55787;52.678;13.314;2023-07-13T02:27:28;14.40;87.94
68804;SHT31;55787;52.678;13.314;2023-07-13T02:29:55;14.46;87.60
68804;SHT31;55787;52.678;13.314;2023-07-13T02:32:22;14.49;87.49
68804;SHT31;55787;52.678;13.314;2023-07-13T02:34:51;14.54;87.36
68804;SHT31;55787;52.678;13.314;2023-07-13T02:37:19;14.61;87.24
68804;SHT31;55787;52.678;13.314;2023-07-13T02:39:46;14.68;86.66
68804;SHT31;55787;52.678;13.314;2023-07-13T02:42:12;14.68;86.83
68804;SHT31;55787;52.678;13.314;2023-07-13T02:44:39;14.64;87.07
68804;SHT31;55787;52.678;13.314;2023-07-13T02:47:06;14.61;87.30
68804;SHT31;55787;52.678;13.314;2023-07-13T02:49:32;14.54;87.57
68804;SHT31;55787;52.678;13.314;2023-07-13T02:51:59;14.49;87.55
68804;SHT31;55787;52.678;13.314;2023-07-13T02:54:26;14.49;87.90
68804;SHT31;55787;52.678;13.314;2023-07-13T02:56:52;14.48;87.58
68804;SHT31;55787;52.678;13.314;2023-07-13T02:59:19;14.42;87.74
68804;SHT31;55787;52.678;13.314;2023-07-13T03:01:46;14.32;87.66
68804;SHT31;55787;52.678;13.314;2023-07-13T03:04:13;14.28;87.85
68804;SHT31;55787;52.678;13.314;2023-07-13T03:06:41;14.25;87.76
68804;SHT31;55787;52.678;13.314;2023-07-13T03:09:07;14.14;87.62
68804;SHT31;55787;52.678;13.314;2023-07-13T03:11:34;14.07;88.16
68804;SHT31;55787;52.678;13.314;2023-07-13T03:14:01;14.02;88.38
68804;SHT31;55787;52.678;13.314;2023-07-13T03:16:28;13.94;88.72
68804;SHT31;55787;52.678;13.314;2023-07-13T03:18:55;13.91;89.04
68804;SHT31;55787;52.678;13.314;2023-07-13T03:21:21;13.87;88.97
68804;SHT31;55787;52.678;13.314;2023-07-13T03:23:48;13.83;88.92
68804;SHT31;55787;52.678;13.314;2023-07-13T03:26:18;13.80;88.99
68804;SHT31;55787;52.678;13.314;2023-07-13T03:28:45;13.74;89.29
68804;SHT31;55787;52.678;13.314;2023-07-13T03:31:16;13.73;88.97
68804;SHT31;55787;52.678;13.314;2023-07-13T03:33:44;13.80;89.42
68804;SHT31;55787;52.678;13.314;2023-07-13T03:36:19;13.79;89.45
68804;SHT31;55787;52.678;13.314;2023-07-13T03:38:48;13.80;89.58
68804;SHT31;55787;52.678;13.314;2023-07-13T03:41:15;13.76;89.53
68804;SHT31;55787;52.678;13.314;2023-07-13T03:43:43;13.74;90.05
68804;SHT31;55787;52.678;13.314;2023-07-13T03:46:10;13.77;89.76
68804;SHT31;55787;52.678;13.314;2023-07-13T03:48:37;13.82;89.37
68804;SHT31;55787;52.678;13.314;2023-07-13T03:51:06;13.84;89.21
68804;SHT31;55787;52.678;13.314;2023-07-13T03:53:32;13.94;88.97
68804;SHT31;55787;52.678;13.314;2023-07-13T03:55:59;13.99;88.90
68804;SHT31;55787;52.678;13.314;2023-07-13T03:58:32;14.00;88.80
68804;SHT31;55787;52.678;13.314;2023-07-13T04:01:00;14.00;89.01
68804;SHT31;55787;52.678;13.314;2023-07-13T04:03:27;14.03;89.18
68804;SHT31;55787;52.678;13.314;2023-07-13T04:05:56;14.00;89.00
68804;SHT31;55787;52.678;13.314;2023-07-13T04:08:32;14.00;89.01
68804;SHT31;55787;52.678;13.314;2023-07-13T04:10:59;14.02;89.05
68804;SHT31;55787;52.678;13.314;2023-07-13T04:13:26;14.00;89.42
68804;SHT31;55787;52.678;13.314;2023-07-13T04:15:54;14.03;89.36
68804;SHT31;55787;52.678;13.314;2023-07-13T04:18:21;14.07;89.24
68804;SHT31;55787;52.678;13.314;2023-07-13T04:20:48;14.10;88.81
68804;SHT31;55787;52.678;13.314;2023-07-13T04:23:16;14.13;89.03
68804;SHT31;55787;52.678;13.314;2023-07-13T04:25:44;14.17;89.15
68804;SHT31;55787;52.678;13.314;2023-07-13T04:28:11;14.23;89.42
68804;SHT31;55787;52.678;13.314;2023-07-13T04:30:38;14.27;89.13
68804;SHT31;55787;52.678;13.314;2023-07-13T04:33:05;14.31;89.24
68804;SHT31;55787;52.678;13.314;2023-07-13T04:35:31;14.35;89.08
68804;SHT31;55787;52.678;13.314;2023-07-13T04:37:58;14.41;88.83
68804;SHT31;55787;52.678;13.314;2023-07-13T04:40:27;14.52;88.92
68804;SHT31;55787;52.678;13.314;2023-07-13T04:42:54;14.60;88.97
68804;SHT31;55787;52.678;13.314;2023-07-13T04:45:21;14.67;88.63
68804;SHT31;55787;52.678;13.314;2023-07-13T04:47:48;14.79;88.20
68804;SHT31;55787;52.678;13.314;2023-07-13T04:50:15;15.06;86.62
68804;SHT31;55787;52.678;13.314;2023-07-13T04:52:46;15.16;86.16
68804;SHT31;55787;52.678;13.314;2023-07-13T04:55:13;15.23;86.20
68804;SHT31;55787;52.678;13.314;2023-07-13T04:57:40;15.30;86.28
68804;SHT31;55787;52.678;13.314;2023-07-13T05:00:07;15.49;85.04
68804;SHT31;55787;52.678;13.314;2023-07-13T05:02:34;15.64;85.06
68804;SHT31;55787;52.678;13.314;2023-07-13T05:05:02;15.75;84.62
68804;SHT31;55787;52.678;13.314;2023-07-13T05:07:30;15.80;84.89
68804;SHT31;55787;52.678;13.314;2023-07-13T05:09:59;16.01;83.95
68804;SHT31;55787;52.678;13.314;2023-07-13T05:12:27;16.06;84.30
68804;SHT31;55787;52.678;13.314;2023-07-13T05:14:53;16.19;84.17
68804;SHT31;55787;52.678;13.314;2023-07-13T05:17:20;16.33;83.69
68804;SHT31;55787;52.678;13.314;2023-07-13T05:19:47;16.42;83.32
68804;SHT31;55787;52.678;13.314;2023-07-13T05:22:14;16.62;82.50
68804;SHT31;55787;52.678;13.314;2023-07-13T05:24:40;16.76;82.87
68804;SHT31;55787;52.678;13.314;2023-07-13T05:27:07;16.94;81.90
68804;SHT31;55787;52.678;13.314;2023-07-13T05:29:34;17.06;82.32
68804;SHT31;55787;52.678;13.314;2023-07-13T05:32:00;17.24;81.58
68804;SHT31;55787;52.678;13.314;2023-07-13T05:34:27;17.41;80.73
68804;SHT31;55787;52.678;13.314;2023-07-13T05:36:55;17.58;79.55
68804;SHT31;55787;52.678;13.314;2023-07-13T05:39:22;17.72;78.74
68804;SHT31;55787;52.678;13.314;2023-07-13T05:41:49;17.93;79.29
68804;SHT31;55787;52.678;13.314;2023-07-13T05:44:15;18.13;77.86
68804;SHT31;55787;52.678;13.314;2023-07-13T05:46:42;18.33;77.73
68804;SHT31;55787;52.678;13.314;2023-07-13T05:49:09;18.47;76.82
68804;SHT31;55787;52.678;13.314;2023-07-13T05:51:35;18.65;76.33
68804;SHT31;55787;52.678;13.314;2023-07-13T05:54:02;18.76;74.86
68804;SHT31;55787;52.678;13.314;2023-07-13T05:56:29;18.96;75.21
68804;SHT31;55787;52.678;13.314;2023-07-13T05:58:56;19.19;75.14
68804;SHT31;55787;52.678;13.314;2023-07-13T06:01:23;19.45;74.78
68804;SHT31;55787;52.678;13.314;2023-07-13T06:03:50;19.47;72.68
68804;SHT31;55787;52.678;13.314;2023-07-13T06:06:17;19.69;72.68
68804;SHT31;55787;52.678;13.314;2023-07-13T06:08:44;19.90;72.49
68804;SHT31;55787;52.678;13.314;2023-07-13T06:11:14;19.91;70.78
68804;SHT31;55787;52.678;13.314;2023-07-13T06:13:41;20.10;71.81
68804;SHT31;55787;52.678;13.314;2023-07-13T06:16:08;20.15;70.14
68804;SHT31;55787;52.678;13.314;2023-07-13T06:18:36;20.65;69.62
68804;SHT31;55787;52.678;13.314;2023-07-13T06:21:18;21.99;66.23
68804;SHT31;55787;52.678;13.314;2023-07-13T06:23:46;23.39;60.10
68804;SHT31;55787;52.678;13.314;2023-07-13T06:26:14;23.12;59.23
68804;SHT31;55787;52.678;13.314;2023-07-13T06:28:41;24.47;56.55
68804;SHT31;55787;52.678;13.314;2023-07-13T06:31:09;24.97;54.68
68804;SHT31;55787;52.678;13.314;2023-07-13T06:33:36;25.17;54.78
68804;SHT31;55787;52.678;13.314;2023-07-13T06:36:04;26.45;51.30
68804;SHT31;55787;52.678;13.314;2023-07-13T06:38:32;26.98;49.41
68804;SHT31;55787;52.678;13.314;2023-07-13T06:40:58;26.72;50.04
68804;SHT31;55787;52.678;13.314;2023-07-13T06:43:25;27.10;49.77
68804;SHT31;55787;52.678;13.314;2023-07-13T06:45:54;27.97;47.88
68804;SHT31;55787;52.678;13.314;2023-07-13T06:48:21;28.48;47.07
68804;SHT31;55787;52.678;13.314;2023-07-13T06:50:49;26.33;49.94
68804;SHT31;55787;52.678;13.314;2023-07-13T06:53:21;27.27;49.83
68804;SHT31;55787;52.678;13.314;2023-07-13T06:55:48;27.17;49.87
68804;SHT31;55787;52.678;13.314;2023-07-13T06:58:16;26.60;50.59
68804;SHT31;55787;52.678;13.314;2023-07-13T07:00:43;25.58;52.87
68804;SHT31;55787;52.678;13.314;2023-07-13T07:03:10;26.25;51.16
68804;SHT31;55787;52.678;13.314;2023-07-13T07:05:37;26.76;51.27
68804;SHT31;55787;52.678;13.314;2023-07-13T07:08:04;25.60;50.73
68804;SHT31;55787;52.678;13.314;2023-07-13T07:10:31;26.50;50.84
68804;SHT31;55787;52.678;13.314;2023-07-13T07:12:58;27.79;47.76
68804;SHT31;55787;52.678;13.314;2023-07-13T07:15:26;28.26;45.13
68804;SHT31;55787;52.678;13.314;2023-07-13T07:17:53;28.45;45.46
68804;SHT31;55787;52.678;13.314;2023-07-13T07:20:20;29.22;44.09
68804;SHT31;55787;52.678;13.314;2023-07-13T07:22:47;28.87;44.13
68804;SHT31;55787;52.678;13.314;2023-07-13T07:25:15;29.76;43.24
68804;SHT31;55787;52.678;13.314;2023-07-13T07:27:42;28.53;43.63
68804;SHT31;55787;52.678;13.314;2023-07-13T07:30:12;28.87;43.70
68804;SHT31;55787;52.678;13.314;2023-07-13T07:32:42;29.84;41.09
68804;SHT31;55787;52.678;13.314;2023-07-13T07:35:23;29.19;43.13
68804;SHT31;55787;52.678;13.314;2023-07-13T07:37:50;29.02;41.70
68804;SHT31;55787;52.678;13.314;2023-07-13T07:40:18;29.39;42.10
68804;SHT31;55787;52.678;13.314;2023-07-13T07:42:48;31.20;39.93
68804;SHT31;55787;52.678;13.314;2023-07-13T07:45:14;29.46;40.53
68804;SHT31;55787;52.678;13.314;2023-07-13T07:47:41;29.15;42.60
68804;SHT31;55787;52.678;13.314;2023-07-13T07:50:09;28.55;43.38
68804;SHT31;55787;52.678;13.314;2023-07-13T07:52:36;28.69;43.87
68804;SHT31;55787;52.678;13.314;2023-07-13T07:55:07;29.01;42.44
68804;SHT31;55787;52.678;13.314;2023-07-13T07:57:37;29.57;42.37
68804;SHT31;55787;52.678;13.314;2023-07-13T08:00:07;30.52;40.63
68804;SHT31;55787;52.678;13.314;2023-07-13T08:02:36;28.04;42.07
68804;SHT31;55787;52.678;13.314;2023-07-13T08:05:09;30.15;39.57
68804;SHT31;55787;52.678;13.314;2023-07-13T08:07:39;31.00;39.48
68804;SHT31;55787;52.678;13.314;2023-07-13T08:10:07;30.87;38.13
68804;SHT31;55787;52.678;13.314;2023-07-13T08:12:35;30.24;39.02
68804;SHT31;55787;52.678;13.314;2023-07-13T08:15:06;30.27;38.50
68804;SHT31;55787;52.678;13.314;2023-07-13T08:17:33;30.66;38.50
68804;SHT31;55787;52.678;13.314;2023-07-13T08:20:00;30.56;38.74
68804;SHT31;55787;52.678;13.314;2023-07-13T08:22:27;29.66;38.25
68804;SHT31;55787;52.678;13.314;2023-07-13T08:24:54;29.96;38.64
68804;SHT31;55787;52.678;13.314;2023-07-13T08:27:24;31.11;38.34
68804;SHT31;55787;52.678;13.314;2023-07-13T08:29:51;31.58;37.23
68804;SHT31;55787;52.678;13.314;2023-07-13T08:32:21;32.77;34.37
68804;SHT31;55787;52.678;13.314;2023-07-13T08:34:48;31.02;33.08
68804;SHT31;55787;52.678;13.314;2023-07-13T08:37:16;30.87;34.20
68804;SHT31;55787;52.678;13.314;2023-07-13T08:39:43;30.17;35.24
68804;SHT31;55787;52.678;13.314;2023-07-13T08:42:22;30.43;35.22
68804;SHT31;55787;52.678;13.314;2023-07-13T08:48:02;32.11;31.77
68804;SHT31;55787;52.678;13.314;2023-07-13T08:50:33;32.74;30.68
68804;SHT31;55787;52.678;13.314;2023-07-13T08:53:21;33.55;30.45
68804;SHT31;55787;52.678;13.314;2023-07-13T08:55:57;32.41;29.36
68804;SHT31;55787;52.678;13.314;2023-07-13T08:58:25;33.28;28.96
68804;SHT31;55787;52.678;13.314;2023-07-13T09:01:06;34.13;29.12
68804;SHT31;55787;52.678;13.314;2023-07-13T09:06:34;33.12;29.98
68804;SHT31;55787;52.678;13.314;2023-07-13T09:09:07;32.88;30.60
68804;SHT31;55787;52.678;13.314;2023-07-13T09:11:53;32.94;32.32
68804;SHT31;55787;52.678;13.314;2023-07-13T09:14:45;31.89;33.06
68804;SHT31;55787;52.678;13.314;2023-07-13T09:17:27;32.48;32.43
68804;SHT31;55787;52.678;13.314;2023-07-13T09:20:00;33.24;31.57
68804;SHT31;55787;52.678;13.314;2023-07-13T09:22:33;32.44;33.42
68804;SHT31;55787;52.678;13.314;2023-07-13T09:25:06;31.45;35.02
68804;SHT31;55787;52.678;13.314;2023-07-13T09:27:41;28.81;37.49
68804;SHT31;55787;52.678;13.314;2023-07-13T09:32:37;28.99;38.68
68804;SHT31;55787;52.678;13.314;2023-07-13T09:35:10;29.72;37.24
68804;SHT31;55787;52.678;13.314;2023-07-13T09:37:38;29.25;37.05
68804;SHT31;55787;52.678;13.314;2023-07-13T09:40:24;29.46;37.50
68804;SHT31;55787;52.678;13.314;2023-07-13T09:42:53;27.97;40.66
68804;SHT31;55787;52.678;13.314;2023-07-13T09:45:28;27.52;40.66
68804;SHT31;55787;52.678;13.314;2023-07-13T09:48:04;26.31;41.94
68804;SHT31;55787;52.678;13.314;2023-07-13T09:50:31;25.96;43.44
68804;SHT31;55787;52.678;13.314;2023-07-13T09:52:57;26.14;43.79
68804;SHT31;55787;52.678;13.314;2023-07-13T09:55:34;25.87;44.77
68804;SHT31;55787;52.678;13.314;2023-07-13T09:58:13;25.57;45.26
68804;SHT31;55787;52.678;13.314;2023-07-13T10:00:41;27.49;42.68
68804;SHT31;55787;52.678;13.314;2023-07-13T10:03:19;29.19;39.91
68804;SHT31;55787;52.678;13.314;2023-07-13T10:05:49;31.48;37.32
68804;SHT31;55787;52.678;13.314;2023-07-13T10:08:22;30.08;36.02
68804;SHT31;55787;52.678;13.314;2023-07-13T10:11:12;32.60;34.79
68804;SHT31;55787;52.678;13.314;2023-07-13T10:13:46;33.14;32.58
68804;SHT31;55787;52.678;13.314;2023-07-13T10:16:15;32.97;33.30
68804;SHT31;55787;52.678;13.314;2023-07-13T10:18:51;31.27;36.38
68804;SHT31;55787;52.678;13.314;2023-07-13T10:21:21;30.48;36.47
68804;SHT31;55787;52.678;13.314;2023-07-13T10:23:57;28.72;39.64
68804;SHT31;55787;52.678;13.314;2023-07-13T10:26:29;27.88;42.17
68804;SHT31;55787;52.678;13.314;2023-07-13T10:29:00;26.14;44.34
68804;SHT31;55787;52.678;13.314;2023-07-13T10:31:27;28.20;40.59
68804;SHT31;55787;52.678;13.314;2023-07-13T10:33:54;29.32;37.33
68804;SHT31;55787;52.678;13.314;2023-07-13T10:36:53;28.96;35.93
68804;SHT31;55787;52.678;13.314;2023-07-13T10:39:23;28.54;36.41
68804;SHT31;55787;52.678;13.314;2023-07-13T10:41:55;28.87;36.12
68804;SHT31;55787;52.678;13.314;2023-07-13T10:44:26;28.44;35.84
68804;SHT31;55787;52.678;13.314;2023-07-13T10:47:15;30.66;35.16
68804;SHT31;55787;52.678;13.314;2023-07-13T10:49:55;29.37;35.69
68804;SHT31;55787;52.678;13.314;2023-07-13T10:52:42;28.68;38.74
68804;SHT31;55787;52.678;13.314;2023-07-13T10:55:30;29.11;35.35
68804;SHT31;55787;52.678;13.314;2023-07-13T10:58:01;31.10;33.75
68804;SHT31;55787;52.678;13.314;2023-07-13T11:00:31;32.39;32.12
68804;SHT31;55787;52.678;13.314;2023-07-13T11:03:02;33.32;31.52
68804;SHT31;55787;52.678;13.314;2023-07-13T11:05:32;32.25;31.52
68804;SHT31;55787;52.678;13.314;2023-07-13T11:08:33;32.69;32.83
68804;SHT31;55787;52.678;13.314;2023-07-13T11:11:00;31.64;32.68
68804;SHT31;55787;52.678;13.314;2023-07-13T11:18:50;32.02;32.32
68804;SHT31;55787;52.678;13.314;2023-07-13T11:21:23;33.17;33.41
68804;SHT31;55787;52.678;13.314;2023-07-13T11:24:14;34.24;29.91
68804;SHT31;55787;52.678;13.314;2023-07-13T11:26:51;32.23;31.34
68804;SHT31;55787;52.678;13.314;2023-07-13T11:31:55;32.49;31.82
68804;SHT31;55787;52.678;13.314;2023-07-13T11:34:41;30.79;33.52
68804;SHT31;55787;52.678;13.314;2023-07-13T11:37:12;29.19;34.54
68804;SHT31;55787;52.678;13.314;2023-07-13T11:39:42;30.03;35.35
68804;SHT31;55787;52.678;13.314;2023-07-13T11:42:15;29.64;35.11
68804;SHT31;55787;52.678;13.314;2023-07-13T11:44:47;28.82;36.50
68804;SHT31;55787;52.678;13.314;2023-07-13T11:47:33;29.27;35.25
68804;SHT31;55787;52.678;13.314;2023-07-13T11:50:00;28.34;35.60
68804;SHT31;55787;52.678;13.314;2023-07-13T11:52:33;27.73;36.77
68804;SHT31;55787;52.678;13.314;2023-07-13T11:55:03;28.99;35.42
68804;SHT31;55787;52.678;13.314;2023-07-13T11:57:33;30.83;32.69
68804;SHT31;55787;52.678;13.314;2023-07-13T12:00:12;31.30;33.13
68804;SHT31;55787;52.678;13.314;2023-07-13T12:02:44;28.47;34.95
68804;SHT31;55787;52.678;13.314;2023-07-13T12:05:14;30.01;33.77
68804;SHT31;55787;52.678;13.314;2023-07-13T12:07:41;29.97;34.12
68804;SHT31;55787;52.678;13.314;2023-07-13T12:12:36;28.64;35.76
68804;SHT31;55787;52.678;13.314;2023-07-13T12:15:07;27.35;37.94
68804;SHT31;55787;52.678;13.314;2023-07-13T12:17:34;27.11;38.78
68804;SHT31;55787;52.678;13.314;2023-07-13T12:22:47;26.83;38.97
68804;SHT31;55787;52.678;13.314;2023-07-13T12:25:15;27.46;39.76
68804;SHT31;55787;52.678;13.314;2023-07-13T12:27:42;27.78;41.48
68804;SHT31;55787;52.678;13.314;2023-07-13T12:30:28;27.30;38.25
68804;SHT31;55787;52.678;13.314;2023-07-13T12:33:11;26.67;39.21
68804;SHT31;55787;52.678;13.314;2023-07-13T12:35:46;26.21;41.00
68804;SHT31;55787;52.678;13.314;2023-07-13T12:38:13;27.42;40.77
68804;SHT31;55787;52.678;13.314;2023-07-13T12:40:40;28.74;39.54
68804;SHT31;55787;52.678;13.314;2023-07-13T12:43:13;28.03;38.77
68804;SHT31;55787;52.678;13.314;2023-07-13T12:48:29;30.63;37.93
68804;SHT31;55787;52.678;13.314;2023-07-13T12:51:13;30.59;36.21
68804;SHT31;55787;52.678;13.314;2023-07-13T12:53:43;28.28;36.52
68804;SHT31;55787;52.678;13.314;2023-07-13T12:56:19;28.65;37.23
68804;SHT31;55787;52.678;13.314;2023-07-13T12:58:49;27.81;37.30
68804;SHT31;55787;52.678;13.314;2023-07-13T13:01:22;28.33;39.18
68804;SHT31;55787;52.678;13.314;2023-07-13T13:03:53;28.74;37.26
68804;SHT31;55787;52.678;13.314;2023-07-13T13:06:26;29.22;36.23
68804;SHT31;55787;52.678;13.314;2023-07-13T13:08:57;28.26;37.03
68804;SHT31;55787;52.678;13.314;2023-07-13T13:11:26;29.27;37.70
68804;SHT31;55787;52.678;13.314;2023-07-13T13:13:53;29.80;35.30
68804;SHT31;55787;52.678;13.314;2023-07-13T13:16:31;30.38;34.74
68804;SHT31;55787;52.678;13.314;2023-07-13T13:19:01;29.25;34.87
68804;SHT31;55787;52.678;13.314;2023-07-13T13:21:30;29.46;35.52
68804;SHT31;55787;52.678;13.314;2023-07-13T13:23:57;29.80;34.84
68804;SHT31;55787;52.678;13.314;2023-07-13T13:26:24;29.22;35.53
68804;SHT31;55787;52.678;13.314;2023-07-13T13:28:52;28.87;37.48
68804;SHT31;55787;52.678;13.314;2023-07-13T13:31:19;28.10;38.23
68804;SHT31;55787;52.678;13.314;2023-07-13T13:33:46;28.27;39.45
68804;SHT31;55787;52.678;13.314;2023-07-13T13:36:22;28.09;37.65
68804;SHT31;55787;52.678;13.314;2023-07-13T13:38:50;26.91;38.11
68804;SHT31;55787;52.678;13.314;2023-07-13T13:41:17;26.70;39.50
68804;SHT31;55787;52.678;13.314;2023-07-13T13:43:44;26.15;39.84
68804;SHT31;55787;52.678;13.314;2023-07-13T13:46:21;26.77;41.18
68804;SHT31;55787;52.678;13.314;2023-07-13T13:48:51;27.08;39.49
68804;SHT31;55787;52.678;13.314;2023-07-13T13:51:22;27.48;40.38
68804;SHT31;55787;52.678;13.314;2023-07-13T13:53:50;27.18;39.01
68804;SHT31;55787;52.678;13.314;2023-07-13T13:56:18;26.93;39.37
68804;SHT31;55787;52.678;13.314;2023-07-13T13:58:46;25.84;40.67
68804;SHT31;55787;52.678;13.314;2023-07-13T14:01:21;26.55;40.85
68804;SHT31;55787;52.678;13.314;2023-07-13T14:03:50;27.07;39.84
68804;SHT31;55787;52.678;13.314;2023-07-13T14:06:18;26.72;39.57
68804;SHT31;55787;52.678;13.314;2023-07-13T14:08:45;27.21;39.03
68804;SHT31;55787;52.678;13.314;2023-07-13T14:11:16;26.98;38.92
68804;SHT31;55787;52.678;13.314;2023-07-13T14:13:47;27.62;38.29
68804;SHT31;55787;52.678;13.314;2023-07-13T14:16:17;28.09;38.65
68804;SHT31;55787;52.678;13.314;2023-07-13T14:18:45;27.89;39.38
68804;SHT31;55787;52.678;13.314;2023-07-13T14:21:19;27.63;39.57
68804;SHT31;55787;52.678;13.314;2023-07-13T14:23:48;27.23;38.62
68804;SHT31;55787;52.678;13.314;2023-07-13T14:26:18;26.66;39.64
68804;SHT31;55787;52.678;13.314;2023-07-13T14:28:49;26.45;40.46
68804;SHT31;55787;52.678;13.314;2023-07-13T14:31:17;27.17;40.05
68804;SHT31;55787;52.678;13.314;2023-07-13T14:33:44;27.07;41.26
68804;SHT31;55787;52.678;13.314;2023-07-13T14:36:25;27.17;39.60
68804;SHT31;55787;52.678;13.314;2023-07-13T14:38:53;27.49;39.91
68804;SHT31;55787;52.678;13.314;2023-07-13T14:41:20;27.31;40.95
68804;SHT31;55787;52.678;13.314;2023-07-13T14:43:47;27.18;38.88
68804;SHT31;55787;52.678;13.314;2023-07-13T14:48:50;26.70;39.73
68804;SHT31;55787;52.678;13.314;2023-07-13T14:51:17;27.17;39.63
68804;SHT31;55787;52.678;13.314;2023-07-13T14:53:44;27.48;38.64
68804;SHT31;55787;52.678;13.314;2023-07-13T14:56:11;26.56;39.77
68804;SHT31;55787;52.678;13.314;2023-07-13T14:58:39;26.40;39.47
68804;SHT31;55787;52.678;13.314;2023-07-13T15:01:14;26.53;39.42
68804;SHT31;55787;52.678;13.314;2023-07-13T15:03:45;26.63;39.87
68804;SHT31;55787;52.678;13.314;2023-07-13T15:06:12;26.82;39.37
68804;SHT31;55787;52.678;13.314;2023-07-13T15:08:40;26.59;38.34
68804;SHT31;55787;52.678;13.314;2023-07-13T15:11:10;26.24;38.48
68804;SHT31;55787;52.678;13.314;2023-07-13T15:13:39;26.80;40.17
68804;SHT31;55787;52.678;13.314;2023-07-13T15:16:18;26.79;38.05
68804;SHT31;55787;52.678;13.314;2023-07-13T15:18:47;26.64;37.40
68804;SHT31;55787;52.678;13.314;2023-07-13T15:21:21;26.19;37.60
68804;SHT31;55787;52.678;13.314;2023-07-13T15:23:49;26.70;40.41
68804;SHT31;55787;52.678;13.314;2023-07-13T15:26:17;26.18;38.55
68804;SHT31;55787;52.678;13.314;2023-07-13T15:28:45;26.11;39.27
68804;SHT31;55787;52.678;13.314;2023-07-13T15:31:20;25.85;39.73
68804;SHT31;55787;52.678;13.314;2023-07-13T15:33:49;25.50;40.68
68804;SHT31;55787;52.678;13.314;2023-07-13T15:36:18;25.75;42.32
68804;SHT31;55787;52.678;13.314;2023-07-13T15:38:47;25.88;42.10
68804;SHT31;55787;52.678;13.314;2023-07-13T15:43:41;26.14;45.73
68804;SHT31;55787;52.678;13.314;2023-07-13T15:46:07;26.11;47.63
68804;SHT31;55787;52.678;13.314;2023-07-13T15:48:34;25.80;42.56
68804;SHT31;55787;52.678;13.314;2023-07-13T15:51:04;25.67;41.66
68804;SHT31;55787;52.678;13.314;2023-07-13T15:53:34;25.64;41.85
68804;SHT31;55787;52.678;13.314;2023-07-13T15:56:02;25.60;41.65
68804;SHT31;55787;52.678;13.314;2023-07-13T15:58:32;25.47;43.52
68804;SHT31;55787;52.678;13.314;2023-07-13T16:01:00;25.27;40.28